Time;durP1;ratioP1;P1;durP2;ratioP2;P2;SDS_P1;SDS_P2;PMS_P1;PMS_P2;Temp;Humidity;BMP_temperature;BMP_pressure;BME280_temperature;BME280_humidity;BME280_pressure;Samples;Min_cycle;Max_cycle;Signal;HPM_P1;HPM_P2
2022/03/01 00:03:39;;;;;;;;;;;;;;;;;;5099120;28;19904;-56
2022/03/01 00:06:07;;;;;;;;;;;;;;;;;;5078690;28;19942;-56
2022/03/01 00:08:35;;;;;;;;;;;;;;;;;;5089271;28;19926;-56
2022/03/01 00:11:14;;;;;;;;;;;;;;;;;;5065910;28;19980;-57
2022/03/01 00:13:40;;;;;;;;;;;;;;;;;;5048846;28;19905;-56
2022/03/01 00:16:16;;;;;;;;;;;;;;;;;;5069314;28;20009;-53
2022/03/01 00:19:00;;;;;;;;;;;;;;;;;;5069347;28;20301;-55
2022/03/01 00:21:30;;;;;;;;;;;;;;;;;;5069186;28;19920;-54
2022/03/01 00:23:56;;;;;;;;;;;;;;;;;;5070013;28;19936;-56
2022/03/01 00:26:31;;;;;;;;;;;;;;;;;;5069024;28;19904;-56
2022/03/01 00:34:31;;;;;;;;;;;;;;;;;;5069288;28;19928;-56
2022/03/01 00:37:07;;;;;;;;;;;;;;;;;;5068208;28;19905;-57
2022/03/01 00:39:38;;;;;;;;;;;;;;;;;;5051715;28;19916;-57
2022/03/01 00:42:13;;;;;;;;;;;;;;;;;;5090720;28;19967;-57
2022/03/01 00:44:55;;;;;;;;;;;;;;;;;;5111338;28;19904;-57
2022/03/01 00:47:28;;;;;;;;;;;;;;;;;;5110569;28;19904;-56
2022/03/01 00:50:05;;;;;;;;;;;;;;;;;;5068636;28;19904;-57
2022/03/01 00:52:38;;;;;;;;;;;;;;;;;;5069036;28;19976;-57
2022/03/01 01:00:49;;;;;;;;;;;;;;;;;;4989815;28;19946;-56
2022/03/01 01:03:27;;;;;;;;;;;;;;;;;;5001067;28;19911;-56
2022/03/01 01:08:44;;;;;;;;;;;;;;;;;;5068845;28;19916;-57
2022/03/01 01:11:16;;;;;;;;;;;;;;;;;;5068614;28;19915;-55
2022/03/01 01:13:54;;;;;;;;;;;;;;;;;;5068731;28;19936;-56
2022/03/01 01:16:26;;;;;;;;;;;;;;;;;;5068871;28;19905;-56
2022/03/01 01:24:51;;;;;;;;;;;;;;;;;;5110420;28;19911;-55
2022/03/01 01:27:43;;;;;;;;;;;;;;;;;;;;;
2022/03/01 01:30:10;;;;;;;;;;;;;;;;;;5110516;28;19939;-57
2022/03/01 01:32:52;;;;;;;;;;;;;;;;;;;;;
2022/03/01 01:35:19;;;;;;;;;;;;;;;;;;5042505;28;19943;-57
2022/03/01 01:38:01;;;;;;;;;;;;;;;;;;;;;
2022/03/01 01:40:31;;;;;;;;;;;;;;;;;;5105080;28;19944;-57
2022/03/01 01:45:43;;;;;;;;;;;;;;;;;;5109596;28;19911;-55
2022/03/01 01:48:15;;;;;;;;;;;;;;;;;;5109382;28;19904;-57
2022/03/01 01:50:47;;;;;;;;;;;;;;;;;;5109227;28;19958;-57
2022/03/01 01:56:09;;;;;;;;;;;;;;;;;;5085650;28;19908;-56
2022/03/01 01:58:38;;;;;;;;;;;;;;;;;;5110314;28;19908;-54
2022/03/01 02:01:16;;;;;;;;;;;;;;;;;;5110103;28;19934;-57
2022/03/01 02:06:47;;;;;;;;;;;;;;;;;;5047273;28;20091;-55
2022/03/01 02:09:16;;;;;;;;;;;;;;;;;;5031186;28;19916;-55
2022/03/01 02:11:54;;;;;;;;;;;;;;;;;;5030721;28;19905;-56
2022/03/01 02:14:20;;;;;;;;;;;;;;;;;;5050631;28;20003;-56
2022/03/01 02:16:46;;;;;;;;;;;;;;;;;;5033709;28;19904;-58
2022/03/01 02:19:15;;;;;;;;;;;;;;;;;;5050242;28;20341;-57
2022/03/01 02:24:48;;;;;;;;;;;;;;;;;;5028271;28;20252;-57
2022/03/01 02:27:26;;;;;;;;;;;;;;;;;;5011216;28;19905;-56
2022/03/01 02:30:02;;;;;;;;;;;;;;;;;;;;;
2022/03/01 02:32:42;;;;;;;;;;;;;;;;;;5027765;28;19941;-57
2022/03/01 02:35:14;;;;;;;;;;;;;;;;;;5014660;28;19948;-57
2022/03/01 02:37:41;;;;;;;;;;;;;;;;;;5062671;28;19904;-56
2022/03/01 02:40:16;;;;;;;;;;;;;;;;;;5089773;28;19919;-57
2022/03/01 02:45:35;;;;;;;;;;;;;;;;;;5088869;28;20321;-57
2022/03/01 02:48:13;;;;;;;;;;;;;;;;;;5089195;28;19905;-56
2022/03/01 02:50:51;;;;;;;;;;;;;;;;;;5089093;28;19904;-56
2022/03/01 02:53:16;;;;;;;;;;;;;;;;;;5070561;28;20250;-56
2022/03/01 02:58:40;;;;;;;;;;;;;;;;;;5089472;28;19915;-57
2022/03/01 03:01:06;;;;;;;;;;;;;;;;;;5071411;28;20364;-56
2022/03/01 03:03:44;;;;;;;;;;;;;;;;;;5088419;28;19904;-55
2022/03/01 03:06:10;;;;;;;;;;;;;;;;;;5079697;28;19916;-56
2022/03/01 03:11:37;;;;;;;;;;;;;;;;;;5055025;28;19954;-56
2022/03/01 03:14:07;;;;;;;;;;;;;;;;;;5067210;28;19905;-55
2022/03/01 03:16:36;;;;;;;;;;;;;;;;;;5066735;28;19904;-57
2022/03/01 03:19:02;;;;;;;;;;;;;;;;;;5047091;28;19905;-55
2022/03/01 03:26:55;;;;;;;;;;;;;;;;;;5047334;28;20279;-57
2022/03/01 03:29:30;;;;;;;;;;;;;;;;;;5047332;28;19905;-56
2022/03/01 03:32:01;;;;;;;;;;;;;;;;;;5030245;28;19905;-56
2022/03/01 03:34:36;;;;;;;;;;;;;;;;;;5047295;28;19991;-55
2022/03/01 03:37:14;;;;;;;;;;;;;;;;;;5047065;28;19920;-56
2022/03/01 03:39:47;;;;;;;;;;;;;;;;;;5058102;28;19947;-57
2022/03/01 03:42:27;;;;;;;;;;;;;;;;;;5067284;28;19905;-56
2022/03/01 03:45:13;;;;;;;;;;;;;;;;;;;;;
2022/03/01 03:47:42;;;;;;;;;;;;;;;;;;5066971;28;19938;-54
2022/03/01 03:50:09;;;;;;;;;;;;;;;;;;5053511;28;19904;-57
2022/03/01 03:52:38;;;;;;;;;;;;;;;;;;5070226;28;20282;-57
2022/03/01 03:55:05;;;;;;;;;;;;;;;;;;5070801;28;19904;-56
2022/03/01 04:00:35;;;;;;;;;;;;;;;;;;;;;
2022/03/01 04:03:17;;;;;;;;;;;;;;;;;;5071114;28;19940;-54
2022/03/01 04:05:43;;;;;;;;;;;;;;;;;;5071081;28;19912;-55
2022/03/01 04:08:13;;;;;;;;;;;;;;;;;;5069436;28;19932;-57
2022/03/01 04:13:43;;;;;;;;;;;;;;;;;;5030695;28;19905;-57
2022/03/01 04:16:27;;;;;;;;;;;;;;;;;;5030637;28;19906;-55
2022/03/01 04:18:56;;;;;;;;;;;;;;;;;;5013353;28;19906;-57
2022/03/01 04:21:37;;;;;;;;;;;;;;;;;;5049391;28;19919;-54
2022/03/01 04:24:15;;;;;;;;;;;;;;;;;;5092734;28;19911;-55
2022/03/01 04:26:45;;;;;;;;;;;;;;;;;;5111484;28;19910;-57
2022/03/01 04:29:29;;;;;;;;;;;;;;;;;;5112019;28;19904;-57
2022/03/01 04:34:47;;;;;;;;;;;;;;;;;;5086146;28;19995;-56
2022/03/01 04:40:09;;;;;;;;;;;;;;;;;;5096673;28;19929;-57
2022/03/01 04:42:44;;;;;;;;;;;;;;;;;;5045032;28;19990;-57
2022/03/01 04:45:13;;;;;;;;;;;;;;;;;;5097200;28;19904;-55
2022/03/01 04:50:23;;;;;;;;;;;;;;;;;;5097024;28;19983;-57
2022/03/01 04:52:54;;;;;;;;;;;;;;;;;;5096724;28;19911;-56
2022/03/01 04:55:22;;;;;;;;;;;;;;;;;;5098055;28;19911;-55
2022/03/01 04:57:48;;;;;;;;;;;;;;;;;;5078678;28;20315;-57
2022/03/01 05:00:17;;;;;;;;;;;;;;;;;;5078583;28;19919;-57
2022/03/01 05:02:49;;;;;;;;;;;;;;;;;;5096851;28;19904;-57
2022/03/01 05:05:43;;;;;;;;;;;;;;;;;;;;;
2022/03/01 05:13:48;;;;;;;;;;;;;;;;;;5083695;28;19970;-57
2022/03/01 05:16:23;;;;;;;;;;;;;;;;;;5078993;28;19911;-57
2022/03/01 05:22:08;;;;;;;;;;;;;;;;;;5034896;28;19913;-55
2022/03/01 05:24:37;;;;;;;;;;;;;;;;;;5034623;28;19991;-56
2022/03/01 05:29:56;;;;;;;;;;;;;;;;;;5058530;28;20341;-57
2022/03/01 05:32:37;;;;;;;;;;;;;;;;;;5077806;28;19943;-56
2022/03/01 05:40:52;;;;;;;;;;;;;;;;;;5096844;28;20011;-57
2022/03/01 05:43:30;;;;;;;;;;;;;;;;;;5096514;28;19904;-57
2022/03/01 05:46:09;;;;;;;;;;;;;;;;;;;;;
2022/03/01 05:49:00;;;;;;;;;;;;;;;;;;;;;
2022/03/01 05:51:41;;;;;;;;;;;;;;;;;;5097057;28;20409;-57
2022/03/01 05:54:31;;;;;;;;;;;;;;;;;;5077184;28;19911;-56
2022/03/01 05:56:53;;;;;;;;;;;;;;;;;;5098870;28;20006;-57
2022/03/01 06:02:07;;;;;;;;;;;;;;;;;;5095811;28;20007;-58
2022/03/01 06:04:39;;;;;;;;;;;;;;;;;;5096022;28;19904;-56
2022/03/01 06:07:09;;;;;;;;;;;;;;;;;;5095799;28;19947;-57
2022/03/01 06:09:40;;;;;;;;;;;;;;;;;;5075264;28;20332;-55
2022/03/01 06:12:15;;;;;;;;;;;;;;;;;;5076431;28;19950;-57
2022/03/01 06:14:49;;;;;;;;;;;;;;;;;;5095398;28;19911;-56
2022/03/01 06:17:18;;;;;;;;;;;;;;;;;;5095269;28;19908;-55
2022/03/01 06:20:01;;;;;;;;;;;;;;;;;;5095924;28;19936;-55
2022/03/01 06:22:32;;;;;;;;;;;;;;;;;;5076468;28;19910;-55
2022/03/01 06:25:08;;;;;;;;;;;;;;;;;;5095877;28;19904;-54
2022/03/01 06:27:52;;;;;;;;;;;;;;;;;;;;;
2022/03/01 06:30:37;;;;;;;;;;;;;;;;;;5049817;28;19939;-56
2022/03/01 06:33:06;;;;;;;;;;;;;;;;;;5035250;28;19904;-58
2022/03/01 06:35:40;;;;;;;;;;;;;;;;;;5052600;28;19905;-56
2022/03/01 06:38:09;;;;;;;;;;;;;;;;;;5052724;28;20358;-57
2022/03/01 06:40:51;;;;;;;;;;;;;;;;;;5052579;28;20345;-57
2022/03/01 06:43:32;;;;;;;;;;;;;;;;;;5036790;28;19904;-56
2022/03/01 06:49:01;;;;;;;;;;;;;;;;;;5020025;28;20350;-55
2022/03/01 06:51:27;;;;;;;;;;;;;;;;;;5052543;28;19927;-57
2022/03/01 06:54:02;;;;;;;;;;;;;;;;;;5052592;28;19991;-57
2022/03/01 06:59:26;;;;;;;;;;;;;;;;;;5087731;28;20334;-55
2022/03/01 07:01:52;;;;;;;;;;;;;;;;;;5094433;28;19954;-56
2022/03/01 07:04:18;;;;;;;;;;;;;;;;;;5076142;28;19912;-55
2022/03/01 07:07:10;;;;;;;;;;;;;;;;;;5095781;28;19916;-57
2022/03/01 07:10:02;;;;;;;;;;;;;;;;;;5074143;28;19970;-55
2022/03/01 07:12:27;;;;;;;;;;;;;;;;;;5071690;28;19951;-57
2022/03/01 07:15:11;;;;;;;;;;;;;;;;;;5075022;28;20038;-57
2022/03/01 07:17:43;;;;;;;;;;;;;;;;;;5056215;28;19973;-57
2022/03/01 07:20:37;;;;;;;;;;;;;;;;;;;;;
2022/03/01 07:22:58;;;;;;;;;;;;;;;;;;5072728;28;19997;-58
2022/03/01 07:25:39;;;;;;;;;;;;;;;;;;5078479;28;20309;-57
2022/03/01 07:28:06;;;;;;;;;;;;;;;;;;5079470;28;19909;-58
2022/03/01 07:30:44;;;;;;;;;;;;;;;;;;5079148;28;19904;-58
2022/03/01 07:33:35;;;;;;;;;;;;;;;;;;;;;
2022/03/01 07:36:04;;;;;;;;;;;;;;;;;;5074409;28;19904;-57
2022/03/01 07:41:17;;;;;;;;;;;;;;;;;;5067839;28;20026;-56
2022/03/01 07:43:52;;;;;;;;;;;;;;;;;;5078703;28;19905;-58
2022/03/01 07:46:38;;;;;;;;;;;;;;;;;;5078462;28;19961;-58
2022/03/01 07:49:05;;;;;;;;;;;;;;;;;;5077904;28;20378;-58
2022/03/01 07:59:50;;;;;;;;;;;;;;;;;;5077734;28;19912;-57
2022/03/01 08:05:18;;;;;;;;;;;;;;;;;;;;;
2022/03/01 08:07:57;;;;;;;;;;;;;;;;;;4997733;28;19916;-57
2022/03/01 08:10:23;;;;;;;;;;;;;;;;;;5077099;28;19954;-58
2022/03/01 08:13:15;;;;;;;;;;;;;;;;;;;;;
2022/03/01 08:15:43;;;;;;;;;;;;;;;;;;5077928;28;20265;-57
2022/03/01 08:18:12;;;;;;;;;;;;;;;;;;5077405;28;19908;-55
2022/03/01 08:20:54;;;;;;;;;;;;;;;;;;;;;
2022/03/01 08:23:27;;;;;;;;;;;;;;;;;;5072485;28;19911;-54
2022/03/01 08:25:56;;;;;;;;;;;;;;;;;;5077193;28;19908;-55
2022/03/01 08:31:10;;;;;;;;;;;;;;;;;;5076419;28;20399;-58
2022/03/01 08:33:42;;;;;;;;;;;;;;;;;;5059171;28;19932;-57
2022/03/01 08:39:17;;;;;;;;;;;;;;;;;;4992657;28;19913;-54
2022/03/01 08:41:53;;;;;;;;;;;;;;;;;;5059822;28;19908;-58
2022/03/01 08:44:35;;;;;;;;;;;;;;;;;;;;;
2022/03/01 08:47:19;;;;;;;;;;;;;;;;;;5073742;28;19904;-58
2022/03/01 08:52:46;;;;;;;;;;;;;;;;;;5076883;28;20369;-58
2022/03/01 08:55:28;;;;;;;;;;;;;;;;;;5077382;28;20262;-58
2022/03/01 08:58:01;;;;;;;;;;;;;;;;;;5077518;28;19908;-58
2022/03/01 09:00:30;;;;;;;;;;;;;;;;;;5077224;28;20003;-55
2022/03/01 09:03:06;;;;;;;;;;;;;;;;;;5076421;28;19908;-56
2022/03/01 09:05:41;;;;;;;;;;;;;;;;;;5057247;28;20358;-56
2022/03/01 09:08:15;;;;;;;;;;;;;;;;;;5064487;28;20362;-56
2022/03/01 09:10:50;;;;;;;;;;;;;;;;;;5096865;28;20046;-57
2022/03/01 09:16:09;;;;;;;;;;;;;;;;;;5096726;28;20356;-58
2022/03/01 09:18:38;;;;;;;;;;;;;;;;;;5097766;28;19908;-57
2022/03/01 09:24:01;;;;;;;;;;;;;;;;;;5096775;28;19911;-55
2022/03/01 09:29:34;;;;;;;;;;;;;;;;;;5062350;28;19972;-56
2022/03/01 09:32:18;;;;;;;;;;;;;;;;;;5096291;28;19911;-56
2022/03/01 09:34:47;;;;;;;;;;;;;;;;;;5097612;28;20360;-57
2022/03/01 09:37:16;;;;;;;;;;;;;;;;;;5096628;28;19910;-56
2022/03/01 09:42:31;;;;;;;;;;;;;;;;;;5085483;28;19904;-57
2022/03/01 09:45:03;;;;;;;;;;;;;;;;;;5072646;28;19919;-58
2022/03/01 09:47:30;;;;;;;;;;;;;;;;;;5053606;28;20004;-58
2022/03/01 09:52:45;;;;;;;;;;;;;;;;;;5040358;28;19904;-56
2022/03/01 09:55:19;;;;;;;;;;;;;;;;;;5053981;28;20363;-57
2022/03/01 10:00:55;;;;;;;;;;;;;;;;;;5023558;28;19966;-56
2022/03/01 10:03:26;;;;;;;;;;;;;;;;;;5053393;28;19905;-57
2022/03/01 10:08:55;;;;;;;;;;;;;;;;;;;;;
2022/03/01 10:11:24;;;;;;;;;;;;;;;;;;5054615;28;19999;-57
2022/03/01 10:13:50;;;;;;;;;;;;;;;;;;5053488;28;19911;-57
2022/03/01 10:16:38;;;;;;;;;;;;;;;;;;5056877;28;20015;-57
2022/03/01 10:21:50;;;;;;;;;;;;;;;;;;5095492;28;20027;-56
2022/03/01 10:24:19;;;;;;;;;;;;;;;;;;5053110;28;19944;-56
2022/03/01 10:29:33;;;;;;;;;;;;;;;;;;5052969;28;20000;-56
2022/03/01 10:32:24;;;;;;;;;;;;;;;;;;;;;
2022/03/01 10:35:03;;;;;;;;;;;;;;;;;;;;;
2022/03/01 10:37:41;;;;;;;;;;;;;;;;;;5050304;28;19915;-58
2022/03/01 10:43:04;;;;;;;;;;;;;;;;;;5012869;28;19905;-58
2022/03/01 10:45:39;;;;;;;;;;;;;;;;;;5013823;28;19909;-57
2022/03/01 10:51:07;;;;;;;;;;;;;;;;;;5047272;28;20092;-59
2022/03/01 10:59:20;;;;;;;;;;;;;;;;;;5072032;28;19907;-57
2022/03/01 11:01:52;;;;;;;;;;;;;;;;;;5072993;28;20310;-55
2022/03/01 11:04:28;;;;;;;;;;;;;;;;;;;;;
2022/03/01 11:07:03;;;;;;;;;;;;;;;;;;5072197;28;19908;-55
2022/03/01 11:09:32;;;;;;;;;;;;;;;;;;5070899;28;19962;-54
2022/03/01 11:12:22;;;;;;;;;;;;;;;;;;5072754;28;19915;-56
2022/03/01 11:14:53;;;;;;;;;;;;;;;;;;5071228;28;19913;-56
2022/03/01 11:17:22;;;;;;;;;;;;;;;;;;5059093;28;19904;-58
2022/03/01 11:30:56;;;;;;;;;;;;;;;;;;5094774;28;19964;-55
2022/03/01 11:36:27;;;;;;;;;;;;;;;;;;5032182;28;19905;-56
2022/03/01 11:39:15;;;;;;;;;;;;;;;;;;5032476;28;20266;-56
2022/03/01 11:41:42;;;;;;;;;;;;;;;;;;5031957;28;19913;-57
2022/03/01 11:47:03;;;;;;;;;;;;;;;;;;5032064;28;19905;-54
2022/03/01 11:49:29;;;;;;;;;;;;;;;;;;5016473;28;19905;-56
2022/03/01 11:52:01;;;;;;;;;;;;;;;;;;5031953;28;19916;-57
2022/03/01 11:57:34;;;;;;;;;;;;;;;;;;5012454;28;19909;-55
2022/03/01 12:00:13;;;;;;;;;;;;;;;;;;5050453;28;20479;-56
2022/03/01 12:02:42;;;;;;;;;;;;;;;;;;5054909;28;20373;-56
2022/03/01 12:05:10;;;;;;;;;;;;;;;;;;5054323;28;19904;-56
2022/03/01 12:13:32;;;;;;;;;;;;;;;;;;;;;
2022/03/01 12:18:50;;;;;;;;;;;;;;;;;;5098402;28;20011;-55
2022/03/01 12:24:17;;;;;;;;;;;;;;;;;;5055940;28;19912;-54
2022/03/01 12:26:58;;;;;;;;;;;;;;;;;;5055773;28;19904;-55
2022/03/01 12:30:07;;;;;;;;;;;;;;;;;;;;;
2022/03/01 12:32:24;;;;;;;;;;;;;;;;;;5053851;28;19904;-58
2022/03/01 12:35:05;;;;;;;;;;;;;;;;;;5055120;28;19904;-56
2022/03/01 12:40:17;;;;;;;;;;;;;;;;;;5050658;28;20012;-55
2022/03/01 12:43:04;;;;;;;;;;;;;;;;;;5075016;28;19950;-55
2022/03/01 12:45:33;;;;;;;;;;;;;;;;;;5089116;28;19998;-55
2022/03/01 12:47:59;;;;;;;;;;;;;;;;;;5078056;28;19904;-56
2022/03/01 12:53:18;;;;;;;;;;;;;;;;;;5067594;28;20408;-55
2022/03/01 12:58:33;;;;;;;;;;;;;;;;;;5089662;28;19947;-56
2022/03/01 13:01:02;;;;;;;;;;;;;;;;;;5061217;28;19981;-56
2022/03/01 13:03:36;;;;;;;;;;;;;;;;;;5096495;28;19908;-56
2022/03/01 13:06:08;;;;;;;;;;;;;;;;;;5097503;28;19956;-56
2022/03/01 13:08:43;;;;;;;;;;;;;;;;;;;;;
2022/03/01 13:11:16;;;;;;;;;;;;;;;;;;5053297;28;19916;-54
2022/03/01 13:16:56;;;;;;;;;;;;;;;;;;;;;
2022/03/01 13:19:22;;;;;;;;;;;;;;;;;;5054899;28;20293;-55
2022/03/01 13:21:55;;;;;;;;;;;;;;;;;;5053857;28;20008;-54
2022/03/01 13:25:13;;;;;;;;;;;;;;;;;;;;;
2022/03/01 13:27:10;;;;;;;;;;;;;;;;;;5045916;28;19995;-55
2022/03/01 13:29:39;;;;;;;;;;;;;;;;;;5054862;28;20377;-56
2022/03/01 13:32:14;;;;;;;;;;;;;;;;;;5033796;28;19911;-56
2022/03/01 13:34:58;;;;;;;;;;;;;;;;;;5017989;28;20401;-56
2022/03/01 13:37:28;;;;;;;;;;;;;;;;;;5017493;28;20055;-53
2022/03/01 13:40:12;;;;;;;;;;;;;;;;;;5017833;28;20441;-56
2022/03/01 13:48:29;;;;;;;;;;;;;;;;;;;;;
2022/03/01 13:51:13;;;;;;;;;;;;;;;;;;5034238;28;20278;-56
2022/03/01 13:59:17;;;;;;;;;;;;;;;;;;5058435;28;19911;-56
2022/03/01 14:02:05;;;;;;;;;;;;;;;;;;5074195;28;19913;-55
2022/03/01 14:07:36;;;;;;;;;;;;;;;;;;5084695;28;20265;-56
2022/03/01 14:10:15;;;;;;;;;;;;;;;;;;5096779;28;20398;-57
2022/03/01 14:16:09;;;;;;;;;;;;;;;;;;5096654;28;19904;-56
2022/03/01 14:18:28;;;;;;;;;;;;;;;;;;5085505;28;19904;-56
2022/03/01 14:20:57;;;;;;;;;;;;;;;;;;5096551;28;19962;-53
2022/03/01 14:23:41;;;;;;;;;;;;;;;;;;5095985;28;19904;-56
2022/03/01 14:26:17;;;;;;;;;;;;;;;;;;5076575;28;20353;-56
2022/03/01 14:28:58;;;;;;;;;;;;;;;;;;5089560;28;20257;-58
2022/03/01 14:31:24;;;;;;;;;;;;;;;;;;5095968;28;19907;-55
2022/03/01 14:34:02;;;;;;;;;;;;;;;;;;5094942;28;20380;-57
2022/03/01 14:36:28;;;;;;;;;;;;;;;;;;5077901;28;19961;-56
2022/03/01 14:39:12;;;;;;;;;;;;;;;;;;5095656;28;19908;-57
2022/03/01 14:41:56;;;;;;;;;;;;;;;;;;5095247;28;19912;-56
2022/03/01 14:49:49;;;;;;;;;;;;;;;;;;5097814;28;19957;-56
2022/03/01 14:52:44;;;;;;;;;;;;;;;;;;;;;
2022/03/01 14:55:22;;;;;;;;;;;;;;;;;;5094673;28;19911;-57
2022/03/01 14:57:51;;;;;;;;;;;;;;;;;;5095327;28;20011;-57
2022/03/01 15:00:21;;;;;;;;;;;;;;;;;;5095393;28;20026;-58
2022/03/01 15:02:51;;;;;;;;;;;;;;;;;;5094922;28;19958;-55
2022/03/01 15:05:19;;;;;;;;;;;;;;;;;;5094529;28;19911;-57
2022/03/01 15:07:52;;;;;;;;;;;;;;;;;;5093941;28;19949;-55
2022/03/01 15:10:37;;;;;;;;;;;;;;;;;;;;;
2022/03/01 15:13:06;;;;;;;;;;;;;;;;;;5093386;28;20284;-57
2022/03/01 15:15:47;;;;;;;;;;;;;;;;;;5094913;28;19904;-57
2022/03/01 15:18:18;;;;;;;;;;;;;;;;;;5075578;28;20358;-57
2022/03/01 15:24:01;;;;;;;;;;;;;;;;;;5070225;28;19904;-55
2022/03/01 15:26:26;;;;;;;;;;;;;;;;;;5093328;28;19960;-55
2022/03/01 15:28:52;;;;;;;;;;;;;;;;;;5076641;28;19904;-55
2022/03/01 15:31:30;;;;;;;;;;;;;;;;;;5094308;28;19949;-55
2022/03/01 15:34:04;;;;;;;;;;;;;;;;;;5094731;28;19936;-55
2022/03/01 15:36:49;;;;;;;;;;;;;;;;;;;;;
2022/03/01 15:39:21;;;;;;;;;;;;;;;;;;5031916;28;20305;-57
2022/03/01 15:44:49;;;;;;;;;;;;;;;;;;5013641;28;19905;-55
2022/03/01 15:47:15;;;;;;;;;;;;;;;;;;5016177;28;19912;-58
2022/03/01 15:49:47;;;;;;;;;;;;;;;;;;5017078;28;19976;-57
2022/03/01 15:58:12;;;;;;;;;;;;;;;;;;5016146;28;19980;-57
2022/03/01 16:07:02;;;;;;;;;;;;;;;;;;5053017;28;19915;-57
2022/03/01 16:09:03;;;;;;;;;;;;;;;;;;5043927;28;20342;-56
2022/03/01 16:14:16;;;;;;;;;;;;;;;;;;5035751;28;20056;-53
2022/03/01 16:16:55;;;;;;;;;;;;;;;;;;5018823;28;19905;-55
2022/03/01 16:22:13;;;;;;;;;;;;;;;;;;5038695;28;19919;-58
2022/03/01 16:27:56;;;;;;;;;;;;;;;;;;;;;
2022/03/01 16:30:22;;;;;;;;;;;;;;;;;;5077805;28;19991;-57
2022/03/01 16:38:38;;;;;;;;;;;;;;;;;;5077636;28;20326;-55
2022/03/01 16:41:16;;;;;;;;;;;;;;;;;;5077119;28;19923;-57
2022/03/01 16:43:55;;;;;;;;;;;;;;;;;;5077317;28;19966;-55
2022/03/01 16:46:24;;;;;;;;;;;;;;;;;;5078363;28;19904;-57
2022/03/01 16:48:55;;;;;;;;;;;;;;;;;;5078244;28;19995;-56
2022/03/01 16:51:42;;;;;;;;;;;;;;;;;;;;;
2022/03/01 16:54:31;;;;;;;;;;;;;;;;;;;;;
2022/03/01 16:59:57;;;;;;;;;;;;;;;;;;5078314;28;19990;-56
2022/03/01 17:02:33;;;;;;;;;;;;;;;;;;5076869;28;20220;-57
2022/03/01 17:05:11;;;;;;;;;;;;;;;;;;5077262;28;20410;-57
2022/03/01 17:07:44;;;;;;;;;;;;;;;;;;5081838;28;19908;-57
2022/03/01 17:10:13;;;;;;;;;;;;;;;;;;5077694;28;19909;-57
2022/03/01 17:12:39;;;;;;;;;;;;;;;;;;5087462;28;19915;-56
2022/03/01 17:17:56;;;;;;;;;;;;;;;;;;5096421;28;19957;-56
2022/03/01 17:20:31;;;;;;;;;;;;;;;;;;5077966;28;19958;-57
2022/03/01 17:26:01;;;;;;;;;;;;;;;;;;;;;
2022/03/01 17:31:23;;;;;;;;;;;;;;;;;;5093127;28;20349;-57
2022/03/01 17:34:11;;;;;;;;;;;;;;;;;;;;;
2022/03/01 17:36:47;;;;;;;;;;;;;;;;;;5096922;28;19910;-57
2022/03/01 17:44:47;;;;;;;;;;;;;;;;;;5096331;28;19940;-55
2022/03/01 17:47:19;;;;;;;;;;;;;;;;;;5096342;28;19949;-55
2022/03/01 17:49:47;;;;;;;;;;;;;;;;;;5096924;28;19950;-57
2022/03/01 17:52:17;;;;;;;;;;;;;;;;;;5096104;28;20257;-56
2022/03/01 17:54:46;;;;;;;;;;;;;;;;;;5096236;28;19968;-57
2022/03/01 17:57:18;;;;;;;;;;;;;;;;;;5096110;28;19904;-57
2022/03/01 17:59:50;;;;;;;;;;;;;;;;;;5095982;28;20403;-57
2022/03/01 18:05:05;;;;;;;;;;;;;;;;;;5096511;28;20002;-54
2022/03/01 18:07:40;;;;;;;;;;;;;;;;;;5095281;28;20241;-56
2022/03/01 18:12:58;;;;;;;;;;;;;;;;;;5063677;28;19922;-54
2022/03/01 18:15:42;;;;;;;;;;;;;;;;;;5075060;28;19957;-57
2022/03/01 18:21:06;;;;;;;;;;;;;;;;;;5081699;28;19969;-56
2022/03/01 18:26:24;;;;;;;;;;;;;;;;;;5063741;28;20277;-57
2022/03/01 18:34:35;;;;;;;;;;;;;;;;;;5029688;28;19912;-55
2022/03/01 18:37:05;;;;;;;;;;;;;;;;;;5093739;28;19904;-55
2022/03/01 18:42:34;;;;;;;;;;;;;;;;;;5095803;28;19919;-56
2022/03/01 18:45:04;;;;;;;;;;;;;;;;;;5095697;28;20430;-55
2022/03/01 18:47:30;;;;;;;;;;;;;;;;;;5095466;28;19907;-55
2022/03/01 18:50:15;;;;;;;;;;;;;;;;;;;;;
2022/03/01 18:52:45;;;;;;;;;;;;;;;;;;5096338;28;19971;-57
2022/03/01 18:57:58;;;;;;;;;;;;;;;;;;5095539;28;20316;-56
2022/03/01 19:00:31;;;;;;;;;;;;;;;;;;5095541;28;20285;-56
2022/03/01 19:02:57;;;;;;;;;;;;;;;;;;5089037;28;20401;-54
2022/03/01 19:08:31;;;;;;;;;;;;;;;;;;5033715;28;19975;-56
2022/03/01 19:11:01;;;;;;;;;;;;;;;;;;5032821;28;19936;-55
2022/03/01 19:13:27;;;;;;;;;;;;;;;;;;5032357;28;20290;-57
2022/03/01 19:16:13;;;;;;;;;;;;;;;;;;5056921;28;19911;-57
2022/03/01 19:18:39;;;;;;;;;;;;;;;;;;5074498;28;19905;-57
2022/03/01 19:23:56;;;;;;;;;;;;;;;;;;5075520;28;19912;-57
2022/03/01 19:26:34;;;;;;;;;;;;;;;;;;5063547;28;19916;-57
2022/03/01 19:29:10;;;;;;;;;;;;;;;;;;5056238;28;20339;-56
2022/03/01 19:31:45;;;;;;;;;;;;;;;;;;5074157;28;19904;-56
2022/03/01 19:34:24;;;;;;;;;;;;;;;;;;;;;
2022/03/01 19:36:56;;;;;;;;;;;;;;;;;;5073734;28;19904;-55
2022/03/01 19:39:25;;;;;;;;;;;;;;;;;;5074830;28;20314;-57
2022/03/01 19:41:51;;;;;;;;;;;;;;;;;;5074521;28;19916;-55
2022/03/01 19:53:13;;;;;;;;;;;;;;;;;;5031993;28;19996;-57
2022/03/01 19:55:58;;;;;;;;;;;;;;;;;;5015101;28;19991;-56
2022/03/01 19:58:37;;;;;;;;;;;;;;;;;;;;;
2022/03/01 20:04:31;;;;;;;;;;;;;;;;;;5066833;28;19907;-57
2022/03/01 20:06:56;;;;;;;;;;;;;;;;;;5068312;28;19904;-57
2022/03/01 20:09:41;;;;;;;;;;;;;;;;;;;;;
2022/03/01 20:18:02;;;;;;;;;;;;;;;;;;5083958;28;19915;-54
2022/03/01 20:20:30;;;;;;;;;;;;;;;;;;5051239;28;19913;-56
2022/03/01 20:23:20;;;;;;;;;;;;;;;;;;;;;
2022/03/01 20:25:50;;;;;;;;;;;;;;;;;;5048065;28;20270;-56
2022/03/01 20:28:35;;;;;;;;;;;;;;;;;;5052162;28;19905;-54
2022/03/01 20:37:00;;;;;;;;;;;;;;;;;;5055150;28;19986;-57
2022/03/01 20:39:43;;;;;;;;;;;;;;;;;;5055325;28;20377;-56
2022/03/01 20:44:59;;;;;;;;;;;;;;;;;;5036070;28;19952;-56
2022/03/01 20:50:10;;;;;;;;;;;;;;;;;;5055472;28;19912;-54
2022/03/01 20:52:51;;;;;;;;;;;;;;;;;;5095489;28;19904;-55
2022/03/01 21:01:05;;;;;;;;;;;;;;;;;;5097458;28;20357;-57
2022/03/01 21:03:43;;;;;;;;;;;;;;;;;;5097472;28;19968;-57
2022/03/01 21:06:21;;;;;;;;;;;;;;;;;;5097583;28;19904;-55
2022/03/01 21:09:09;;;;;;;;;;;;;;;;;;5098309;28;20309;-56
2022/03/01 21:11:38;;;;;;;;;;;;;;;;;;5096517;28;20346;-57
2022/03/01 21:14:07;;;;;;;;;;;;;;;;;;5073353;28;19931;-57
2022/03/01 21:16:39;;;;;;;;;;;;;;;;;;5078271;28;19920;-57
2022/03/01 21:22:11;;;;;;;;;;;;;;;;;;5096747;28;19912;-55
2022/03/01 21:24:43;;;;;;;;;;;;;;;;;;5077566;28;19954;-54
2022/03/01 21:29:59;;;;;;;;;;;;;;;;;;5091304;28;19904;-57
2022/03/01 21:32:43;;;;;;;;;;;;;;;;;;5097484;28;20345;-57
2022/03/01 21:35:18;;;;;;;;;;;;;;;;;;5079355;28;20274;-55
2022/03/01 21:37:44;;;;;;;;;;;;;;;;;;5096653;28;19904;-55
2022/03/01 21:40:16;;;;;;;;;;;;;;;;;;5097112;28;20014;-54
2022/03/01 21:42:58;;;;;;;;;;;;;;;;;;5098517;28;19976;-57
2022/03/01 21:45:53;;;;;;;;;;;;;;;;;;;;;
2022/03/01 21:51:22;;;;;;;;;;;;;;;;;;5090017;28;19911;-56
2022/03/01 21:54:06;;;;;;;;;;;;;;;;;;5077562;28;19904;-57
2022/03/01 21:56:39;;;;;;;;;;;;;;;;;;5074971;28;19970;-55
2022/03/01 21:59:20;;;;;;;;;;;;;;;;;;5095834;28;19911;-55
2022/03/01 22:01:57;;;;;;;;;;;;;;;;;;;;;
2022/03/01 22:04:23;;;;;;;;;;;;;;;;;;5110640;28;19927;-56
2022/03/01 22:06:55;;;;;;;;;;;;;;;;;;5110985;28;19915;-57
2022/03/01 22:09:34;;;;;;;;;;;;;;;;;;;;;
2022/03/01 22:14:48;;;;;;;;;;;;;;;;;;5110980;28;20395;-57
2022/03/01 22:17:17;;;;;;;;;;;;;;;;;;5092121;28;19916;-57
2022/03/01 22:22:38;;;;;;;;;;;;;;;;;;5093820;28;19934;-57
2022/03/01 22:28:18;;;;;;;;;;;;;;;;;;5068064;28;19999;-57
2022/03/01 22:30:50;;;;;;;;;;;;;;;;;;5067793;28;19935;-56
2022/03/01 22:36:21;;;;;;;;;;;;;;;;;;5048544;28;19905;-56
2022/03/01 22:39:06;;;;;;;;;;;;;;;;;;;;;
2022/03/01 22:44:28;;;;;;;;;;;;;;;;;;5066997;28;19940;-57
2022/03/01 22:47:12;;;;;;;;;;;;;;;;;;5050488;28;19909;-56
2022/03/01 22:49:38;;;;;;;;;;;;;;;;;;5068109;28;19915;-57
2022/03/01 22:52:11;;;;;;;;;;;;;;;;;;5067919;28;19954;-57
2022/03/01 22:54:55;;;;;;;;;;;;;;;;;;5049486;28;19904;-56
2022/03/01 22:57:24;;;;;;;;;;;;;;;;;;5051211;28;19976;-57
2022/03/01 22:59:49;;;;;;;;;;;;;;;;;;5083678;28;19916;-56
2022/03/01 23:02:18;;;;;;;;;;;;;;;;;;5087252;28;19912;-56
2022/03/01 23:07:35;;;;;;;;;;;;;;;;;;5087952;28;19923;-55
2022/03/01 23:10:07;;;;;;;;;;;;;;;;;;5087630;28;19905;-56
2022/03/01 23:12:33;;;;;;;;;;;;;;;;;;5070850;28;19912;-56
2022/03/01 23:15:02;;;;;;;;;;;;;;;;;;5087572;28;19911;-57
2022/03/01 23:17:34;;;;;;;;;;;;;;;;;;5087184;28;19916;-58
2022/03/01 23:23:09;;;;;;;;;;;;;;;;;;5094701;28;20031;-57
2022/03/01 23:25:52;;;;;;;;;;;;;;;;;;5087516;28;19905;-57
2022/03/01 23:28:36;;;;;;;;;;;;;;;;;;5087892;28;19939;-57
2022/03/01 23:31:03;;;;;;;;;;;;;;;;;;5098400;28;20269;-55
2022/03/01 23:33:29;;;;;;;;;;;;;;;;;;5109789;28;19963;-56
2022/03/01 23:35:58;;;;;;;;;;;;;;;;;;5091353;28;19911;-56
2022/03/01 23:38:30;;;;;;;;;;;;;;;;;;5109935;28;19904;-57
2022/03/01 23:41:03;;;;;;;;;;;;;;;;;;5091008;28;19912;-57
2022/03/01 23:43:35;;;;;;;;;;;;;;;;;;5109737;28;19904;-57
2022/03/01 23:46:06;;;;;;;;;;;;;;;;;;5109343;28;19904;-55
2022/03/01 23:48:38;;;;;;;;;;;;;;;;;;5087480;28;19905;-57
2022/03/01 23:51:09;;;;;;;;;;;;;;;;;;5087354;28;19967;-55
2022/03/01 23:59:23;;;;;;;;;;;;;;;;;;5087514;28;19912;-57
